createdAt,value
2018-02-20T00:00:42.000Z,25
2018-02-20T00:02:42.000Z,25
2018-02-20T00:03:42.000Z,25
2018-02-20T00:04:42.000Z,25
2018-02-20T00:06:42.000Z,25
2018-02-20T00:07:42.000Z,25
2018-02-20T00:09:42.000Z,25
2018-02-20T00:10:42.000Z,25
2018-02-20T00:11:42.000Z,25
2018-02-20T00:12:42.000Z,25
2018-02-20T00:13:42.000Z,25
2018-02-20T00:14:42.000Z,25
2018-02-20T00:15:42.000Z,25
2018-02-20T00:16:42.000Z,25
2018-02-20T00:17:42.000Z,25
2018-02-20T00:18:42.000Z,25
2018-02-20T00:19:42.000Z,25
2018-02-20T00:20:42.000Z,25
2018-02-20T00:21:42.000Z,25
2018-02-20T00:22:42.000Z,25
2018-02-20T00:23:42.000Z,25
2018-02-20T00:24:42.000Z,25
2018-02-20T00:25:42.000Z,25
2018-02-20T00:26:42.000Z,25
2018-02-20T00:27:42.000Z,25
2018-02-20T00:28:42.000Z,25
2018-02-20T00:29:42.000Z,25
2018-02-20T00:30:42.000Z,25
2018-02-20T00:32:42.000Z,25
2018-02-20T00:34:42.000Z,25
2018-02-20T00:35:42.000Z,25
2018-02-20T00:36:42.000Z,25
2018-02-20T00:37:42.000Z,25
2018-02-20T00:38:42.000Z,25
2018-02-20T00:39:42.000Z,25
2018-02-20T00:41:42.000Z,25
2018-02-20T00:42:42.000Z,25
2018-02-20T00:43:42.000Z,25
2018-02-20T00:44:42.000Z,25
2018-02-20T00:45:42.000Z,25
2018-02-20T00:46:42.000Z,25
2018-02-20T00:47:42.000Z,25
2018-02-20T00:48:42.000Z,25
2018-02-20T00:50:42.000Z,25
2018-02-20T00:52:42.000Z,25
2018-02-20T00:53:42.000Z,25
2018-02-20T00:54:42.000Z,25
2018-02-20T00:55:42.000Z,25
2018-02-20T00:56:42.000Z,25
2018-02-20T00:57:42.000Z,25
2018-02-20T00:58:42.000Z,25
2018-02-20T00:59:42.000Z,25
2018-02-20T01:00:42.000Z,25
2018-02-20T01:01:42.000Z,25
2018-02-20T01:02:42.000Z,25
2018-02-20T01:03:42.000Z,25
2018-02-20T01:04:42.000Z,25
2018-02-20T01:05:42.000Z,25
2018-02-20T01:06:42.000Z,25
2018-02-20T01:07:42.000Z,25
2018-02-20T01:08:42.000Z,25
2018-02-20T01:09:42.000Z,25
2018-02-20T01:11:42.000Z,25
2018-02-20T01:12:42.000Z,25
2018-02-20T01:13:42.000Z,25
2018-02-20T01:14:42.000Z,25
2018-02-20T01:16:42.000Z,25
2018-02-20T01:17:42.000Z,25
2018-02-20T01:18:42.000Z,25
2018-02-20T01:19:42.000Z,25
2018-02-20T01:20:42.000Z,25
2018-02-20T01:21:42.000Z,25
2018-02-20T01:22:42.000Z,25
2018-02-20T01:23:42.000Z,25
2018-02-20T01:25:42.000Z,25
2018-02-20T01:26:42.000Z,25
2018-02-20T01:27:42.000Z,25
2018-02-20T01:28:42.000Z,25
2018-02-20T01:29:42.000Z,25
2018-02-20T01:30:42.000Z,25
2018-02-20T01:31:42.000Z,25
2018-02-20T01:32:42.000Z,25
2018-02-20T01:33:42.000Z,25
2018-02-20T01:34:42.000Z,25
2018-02-20T01:35:42.000Z,25
2018-02-20T01:36:42.000Z,25
2018-02-20T01:37:42.000Z,25
2018-02-20T01:38:42.000Z,25
2018-02-20T01:40:42.000Z,25
2018-02-20T01:41:42.000Z,25
2018-02-20T01:42:42.000Z,25
2018-02-20T01:43:42.000Z,25
2018-02-20T01:44:42.000Z,25
2018-02-20T01:45:42.000Z,25
2018-02-20T01:47:42.000Z,25
2018-02-20T01:48:42.000Z,25
2018-02-20T01:49:42.000Z,25
2018-02-20T01:50:42.000Z,25
2018-02-20T01:51:42.000Z,25
2018-02-20T01:52:42.000Z,25
2018-02-20T01:53:42.000Z,25
2018-02-20T01:55:42.000Z,25
2018-02-20T01:56:42.000Z,25
2018-02-20T01:57:42.000Z,25
2018-02-20T01:58:42.000Z,25
2018-02-20T01:59:42.000Z,25
2018-02-20T02:00:42.000Z,25
2018-02-20T02:01:42.000Z,25
2018-02-20T02:02:42.000Z,25
2018-02-20T02:03:42.000Z,25
2018-02-20T02:05:42.000Z,25
2018-02-20T02:07:42.000Z,25
2018-02-20T02:08:42.000Z,25
2018-02-20T02:09:42.000Z,25
2018-02-20T02:10:42.000Z,25
2018-02-20T02:11:42.000Z,25
2018-02-20T02:12:42.000Z,25
2018-02-20T02:14:42.000Z,25
2018-02-20T02:15:42.000Z,25
2018-02-20T02:16:43.000Z,25
2018-02-20T02:18:43.000Z,25
2018-02-20T02:19:43.000Z,25
2018-02-20T02:20:43.000Z,25
2018-02-20T02:21:43.000Z,25
2018-02-20T02:22:43.000Z,25
2018-02-20T02:23:43.000Z,25
2018-02-20T02:24:43.000Z,25
2018-02-20T02:25:43.000Z,25
2018-02-20T02:27:43.000Z,25
2018-02-20T02:28:43.000Z,25
2018-02-20T02:30:43.000Z,25
2018-02-20T02:31:43.000Z,25
2018-02-20T02:32:43.000Z,25
2018-02-20T02:33:43.000Z,25
2018-02-20T02:34:43.000Z,25
2018-02-20T02:36:43.000Z,25
2018-02-20T02:37:43.000Z,25
2018-02-20T02:38:43.000Z,25
2018-02-20T02:40:43.000Z,25
2018-02-20T02:41:43.000Z,25
2018-02-20T02:42:43.000Z,25
2018-02-20T02:43:43.000Z,25
2018-02-20T02:44:43.000Z,25
2018-02-20T02:45:43.000Z,25
2018-02-20T02:46:43.000Z,25
2018-02-20T02:47:43.000Z,25
2018-02-20T02:49:43.000Z,25
2018-02-20T02:50:43.000Z,25
2018-02-20T02:51:43.000Z,25
2018-02-20T02:53:43.000Z,25
2018-02-20T02:54:43.000Z,25
2018-02-20T02:55:43.000Z,25
2018-02-20T02:56:43.000Z,25
2018-02-20T02:58:43.000Z,25
2018-02-20T02:59:43.000Z,25
2018-02-20T03:00:43.000Z,25
2018-02-20T03:01:43.000Z,25
2018-02-20T03:02:43.000Z,25
2018-02-20T03:03:43.000Z,25
2018-02-20T03:04:43.000Z,25
2018-02-20T03:05:43.000Z,25
2018-02-20T03:06:43.000Z,25
2018-02-20T03:07:43.000Z,25
2018-02-20T03:08:43.000Z,25
2018-02-20T03:09:43.000Z,25
2018-02-20T03:10:43.000Z,25
2018-02-20T03:12:43.000Z,25
2018-02-20T03:13:43.000Z,25
2018-02-20T03:14:43.000Z,25
2018-02-20T03:15:43.000Z,25
2018-02-20T03:16:43.000Z,25
2018-02-20T03:17:43.000Z,25
2018-02-20T03:18:43.000Z,25
2018-02-20T03:20:43.000Z,25
2018-02-20T03:21:43.000Z,25
2018-02-20T03:23:43.000Z,25
2018-02-20T03:24:43.000Z,25
2018-02-20T03:25:43.000Z,25
2018-02-20T03:26:43.000Z,25
2018-02-20T03:27:43.000Z,25
2018-02-20T03:28:43.000Z,25
2018-02-20T03:29:43.000Z,25
2018-02-20T03:30:43.000Z,25
2018-02-20T03:32:43.000Z,25
2018-02-20T03:33:43.000Z,25
2018-02-20T03:34:43.000Z,25
2018-02-20T03:35:43.000Z,25
2018-02-20T03:37:43.000Z,25
2018-02-20T03:38:43.000Z,25
2018-02-20T03:39:43.000Z,25
2018-02-20T03:41:43.000Z,25
2018-02-20T03:42:43.000Z,25
2018-02-20T03:43:43.000Z,25
2018-02-20T03:44:43.000Z,25
2018-02-20T03:46:43.000Z,25
2018-02-20T03:47:43.000Z,25
2018-02-20T03:48:43.000Z,25
2018-02-20T03:49:43.000Z,25
2018-02-20T03:50:43.000Z,25
2018-02-20T03:51:43.000Z,25
2018-02-20T03:52:43.000Z,25
2018-02-20T03:53:43.000Z,25
2018-02-20T03:54:43.000Z,25
2018-02-20T03:55:43.000Z,25
2018-02-20T03:56:43.000Z,25
2018-02-20T03:57:43.000Z,25
2018-02-20T03:58:43.000Z,25
2018-02-20T04:00:43.000Z,25
2018-02-20T04:01:43.000Z,25
2018-02-20T04:02:43.000Z,25
2018-02-20T04:03:43.000Z,25
2018-02-20T04:04:43.000Z,25
2018-02-20T04:05:43.000Z,25
2018-02-20T04:06:43.000Z,25
2018-02-20T04:07:43.000Z,25
2018-02-20T04:09:43.000Z,25
2018-02-20T04:10:43.000Z,25
2018-02-20T04:11:43.000Z,25
2018-02-20T04:12:43.000Z,25
2018-02-20T04:13:43.000Z,25
2018-02-20T04:14:43.000Z,25
2018-02-20T04:15:43.000Z,25
2018-02-20T04:16:43.000Z,25
2018-02-20T04:17:43.000Z,25
2018-02-20T04:18:43.000Z,25
2018-02-20T04:19:43.000Z,25
2018-02-20T04:20:43.000Z,25
2018-02-20T04:21:43.000Z,25
2018-02-20T04:22:43.000Z,25
2018-02-20T04:23:43.000Z,25
2018-02-20T04:24:43.000Z,25
2018-02-20T04:25:43.000Z,25
2018-02-20T04:26:43.000Z,24
2018-02-20T04:27:43.000Z,25
2018-02-20T04:28:43.000Z,25
2018-02-20T04:29:43.000Z,25
2018-02-20T04:30:43.000Z,25
2018-02-20T04:31:43.000Z,24
2018-02-20T04:32:43.000Z,24
2018-02-20T04:33:43.000Z,24
2018-02-20T04:34:43.000Z,25
2018-02-20T04:35:43.000Z,25
2018-02-20T04:36:43.000Z,25
2018-02-20T04:37:43.000Z,25
2018-02-20T04:38:43.000Z,25
2018-02-20T04:39:43.000Z,25
2018-02-20T04:40:43.000Z,24
2018-02-20T04:41:43.000Z,25
2018-02-20T04:42:43.000Z,24
2018-02-20T04:43:43.000Z,25
2018-02-20T04:44:43.000Z,25
2018-02-20T04:45:43.000Z,25
2018-02-20T04:46:43.000Z,25
2018-02-20T04:47:43.000Z,25
2018-02-20T04:48:43.000Z,24
2018-02-20T04:49:43.000Z,24
2018-02-20T04:50:43.000Z,24
2018-02-20T04:51:43.000Z,24
2018-02-20T04:53:43.000Z,24
2018-02-20T04:54:43.000Z,25
2018-02-20T04:55:43.000Z,25
2018-02-20T04:56:43.000Z,24
2018-02-20T04:57:43.000Z,25
2018-02-20T04:58:43.000Z,24
2018-02-20T04:59:43.000Z,25
2018-02-20T05:00:43.000Z,24
2018-02-20T05:01:43.000Z,25
2018-02-20T05:03:43.000Z,24
2018-02-20T05:04:43.000Z,25
2018-02-20T05:05:43.000Z,25
2018-02-20T05:06:43.000Z,25
2018-02-20T05:07:43.000Z,25
2018-02-20T05:08:43.000Z,25
2018-02-20T05:10:43.000Z,25
2018-02-20T05:11:43.000Z,25
2018-02-20T05:12:43.000Z,25
2018-02-20T05:13:43.000Z,25
2018-02-20T05:14:43.000Z,25
2018-02-20T05:16:43.000Z,25
2018-02-20T05:17:43.000Z,25
2018-02-20T05:18:43.000Z,25
2018-02-20T05:19:43.000Z,25
2018-02-20T05:20:43.000Z,25
2018-02-20T05:21:43.000Z,25
2018-02-20T05:22:43.000Z,25
2018-02-20T05:23:43.000Z,25
2018-02-20T05:24:43.000Z,25
2018-02-20T05:26:43.000Z,25
2018-02-20T05:27:43.000Z,25
2018-02-20T05:28:43.000Z,25
2018-02-20T05:29:43.000Z,25
2018-02-20T05:30:43.000Z,25
2018-02-20T05:31:43.000Z,25
2018-02-20T05:32:43.000Z,25
2018-02-20T05:33:43.000Z,25
2018-02-20T05:34:43.000Z,26
2018-02-20T05:35:43.000Z,26
2018-02-20T05:36:43.000Z,26
2018-02-20T05:37:43.000Z,26
2018-02-20T05:38:43.000Z,26
2018-02-20T05:39:43.000Z,26
2018-02-20T05:40:43.000Z,26
2018-02-20T05:41:43.000Z,26
2018-02-20T05:42:43.000Z,26
2018-02-20T05:43:43.000Z,26
2018-02-20T05:44:43.000Z,27
2018-02-20T05:45:43.000Z,27
2018-02-20T05:46:43.000Z,26
2018-02-20T05:47:43.000Z,27
2018-02-20T05:48:43.000Z,27
2018-02-20T05:49:43.000Z,26
2018-02-20T05:50:43.000Z,26
2018-02-20T05:51:43.000Z,26
2018-02-20T05:52:43.000Z,26
2018-02-20T05:53:43.000Z,26
2018-02-20T05:54:43.000Z,26
2018-02-20T05:55:43.000Z,26
2018-02-20T05:56:43.000Z,26
2018-02-20T05:57:43.000Z,26
2018-02-20T05:58:43.000Z,26
2018-02-20T05:59:43.000Z,26
2018-02-20T06:00:43.000Z,26
2018-02-20T06:01:43.000Z,26
2018-02-20T06:02:43.000Z,26
2018-02-20T06:03:43.000Z,26
2018-02-20T06:04:43.000Z,26
2018-02-20T06:06:43.000Z,26
2018-02-20T06:07:43.000Z,26
2018-02-20T06:08:43.000Z,26
2018-02-20T06:09:43.000Z,26
2018-02-20T06:11:43.000Z,26
2018-02-20T06:12:43.000Z,26
2018-02-20T06:13:43.000Z,26
2018-02-20T06:14:43.000Z,26
2018-02-20T06:15:43.000Z,26
2018-02-20T06:17:43.000Z,26
2018-02-20T06:18:43.000Z,26
2018-02-20T06:19:43.000Z,26
2018-02-20T06:20:43.000Z,26
2018-02-20T06:21:43.000Z,26
2018-02-20T06:22:43.000Z,26
2018-02-20T06:23:43.000Z,26
2018-02-20T06:24:43.000Z,26
2018-02-20T06:25:43.000Z,26
2018-02-20T06:26:43.000Z,26
2018-02-20T06:27:43.000Z,26
2018-02-20T06:28:43.000Z,26
2018-02-20T06:29:43.000Z,26
2018-02-20T06:30:42.000Z,26
2018-02-20T06:31:42.000Z,26
2018-02-20T06:32:42.000Z,26
2018-02-20T06:34:42.000Z,26
2018-02-20T06:35:42.000Z,26
2018-02-20T06:36:42.000Z,26
2018-02-20T06:37:42.000Z,26
2018-02-20T06:38:42.000Z,26
2018-02-20T06:39:42.000Z,26
2018-02-20T06:40:42.000Z,26
2018-02-20T06:41:42.000Z,26
2018-02-20T06:42:42.000Z,26
2018-02-20T06:43:42.000Z,26
2018-02-20T06:44:42.000Z,26
2018-02-20T06:45:42.000Z,26
2018-02-20T06:46:42.000Z,26
2018-02-20T06:47:42.000Z,26
2018-02-20T06:49:42.000Z,26
2018-02-20T06:50:42.000Z,26
2018-02-20T06:52:42.000Z,26
2018-02-20T06:53:42.000Z,26
2018-02-20T06:54:42.000Z,26
2018-02-20T06:55:42.000Z,26
2018-02-20T06:56:42.000Z,26
2018-02-20T06:57:42.000Z,26
2018-02-20T06:58:42.000Z,26
2018-02-20T06:59:42.000Z,26
2018-02-20T07:01:42.000Z,25
2018-02-20T07:02:42.000Z,26
2018-02-20T07:04:42.000Z,26
2018-02-20T07:05:42.000Z,26
2018-02-20T07:06:42.000Z,26
2018-02-20T07:07:42.000Z,26
2018-02-20T07:08:42.000Z,26
2018-02-20T07:09:42.000Z,26
2018-02-20T07:10:42.000Z,26
2018-02-20T07:11:42.000Z,26
2018-02-20T07:12:42.000Z,26
2018-02-20T07:13:42.000Z,26
2018-02-20T07:14:42.000Z,26
2018-02-20T07:15:42.000Z,26
2018-02-20T07:16:42.000Z,26
2018-02-20T07:17:42.000Z,26
2018-02-20T07:18:42.000Z,27
2018-02-20T07:19:42.000Z,27
2018-02-20T07:21:42.000Z,27
2018-02-20T07:22:42.000Z,27
2018-02-20T07:24:42.000Z,27
2018-02-20T07:25:42.000Z,27
2018-02-20T07:26:42.000Z,27
2018-02-20T07:27:42.000Z,27
2018-02-20T07:28:42.000Z,27
2018-02-20T07:29:42.000Z,27
2018-02-20T07:30:42.000Z,27
2018-02-20T07:31:42.000Z,27
2018-02-20T07:32:42.000Z,27
2018-02-20T07:34:43.000Z,27
2018-02-20T07:36:43.000Z,27
2018-02-20T07:37:43.000Z,27
2018-02-20T07:38:43.000Z,27
2018-02-20T07:39:43.000Z,27
2018-02-20T07:40:43.000Z,27
2018-02-20T07:41:43.000Z,27
2018-02-20T07:42:43.000Z,27
2018-02-20T07:43:43.000Z,27
2018-02-20T07:44:43.000Z,27
2018-02-20T07:45:43.000Z,27
2018-02-20T07:46:43.000Z,27
2018-02-20T07:47:43.000Z,27
2018-02-20T07:48:43.000Z,27
2018-02-20T07:49:43.000Z,27
2018-02-20T07:50:43.000Z,27
2018-02-20T07:52:43.000Z,26
2018-02-20T07:53:43.000Z,26
2018-02-20T07:54:43.000Z,26
2018-02-20T07:55:43.000Z,26
2018-02-20T07:56:43.000Z,26
2018-02-20T07:57:43.000Z,26
2018-02-20T07:58:43.000Z,26
2018-02-20T07:59:43.000Z,26
2018-02-20T08:00:43.000Z,26
2018-02-20T08:01:43.000Z,26
2018-02-20T08:03:43.000Z,26
2018-02-20T08:05:43.000Z,25
2018-02-20T08:06:43.000Z,26
2018-02-20T08:07:43.000Z,26
2018-02-20T08:08:43.000Z,25
2018-02-20T08:09:43.000Z,25
2018-02-20T08:10:43.000Z,25
2018-02-20T08:11:43.000Z,25
2018-02-20T08:12:43.000Z,25
2018-02-20T08:14:43.000Z,25
2018-02-20T08:15:43.000Z,25
2018-02-20T08:16:43.000Z,25
2018-02-20T08:17:43.000Z,25
2018-02-20T08:18:43.000Z,25
2018-02-20T08:19:43.000Z,25
2018-02-20T08:20:43.000Z,24
2018-02-20T08:21:43.000Z,24
2018-02-20T08:22:43.000Z,24
2018-02-20T08:23:43.000Z,24
2018-02-20T08:25:43.000Z,24
2018-02-20T08:26:43.000Z,24
2018-02-20T08:27:43.000Z,24
2018-02-20T08:28:43.000Z,24
2018-02-20T08:29:43.000Z,24
2018-02-20T08:31:43.000Z,23
2018-02-20T08:32:43.000Z,24
2018-02-20T08:33:43.000Z,23
2018-02-20T08:34:43.000Z,23
2018-02-20T08:35:43.000Z,23
2018-02-20T08:37:43.000Z,23
2018-02-20T08:38:43.000Z,23
2018-02-20T08:39:43.000Z,23
2018-02-20T08:40:43.000Z,23
2018-02-20T08:41:43.000Z,23
2018-02-20T08:42:43.000Z,23
2018-02-20T08:43:43.000Z,23
2018-02-20T08:44:43.000Z,23
2018-02-20T08:45:43.000Z,23
2018-02-20T08:47:43.000Z,23
2018-02-20T08:48:43.000Z,23
2018-02-20T08:49:43.000Z,23
2018-02-20T08:50:43.000Z,24
2018-02-20T08:51:43.000Z,24
2018-02-20T08:52:43.000Z,24
2018-02-20T08:53:43.000Z,24
2018-02-20T08:54:43.000Z,24
2018-02-20T08:55:43.000Z,24
2018-02-20T08:56:43.000Z,24
2018-02-20T08:57:43.000Z,24
2018-02-20T08:58:43.000Z,24
2018-02-20T08:59:43.000Z,24
2018-02-20T09:00:43.000Z,24
2018-02-20T09:01:43.000Z,24
2018-02-20T09:02:43.000Z,25
2018-02-20T09:03:43.000Z,25
2018-02-20T09:05:43.000Z,25
2018-02-20T09:06:43.000Z,25
2018-02-20T09:07:43.000Z,25
2018-02-20T09:08:43.000Z,25
2018-02-20T09:09:43.000Z,25
2018-02-20T09:10:43.000Z,25
2018-02-20T09:11:43.000Z,25
2018-02-20T09:12:43.000Z,25
2018-02-20T09:13:43.000Z,25
2018-02-20T09:14:43.000Z,25
2018-02-20T09:15:43.000Z,25
2018-02-20T09:16:43.000Z,25
2018-02-20T09:17:43.000Z,25
2018-02-20T09:18:43.000Z,26
2018-02-20T09:19:43.000Z,26
2018-02-20T09:20:43.000Z,25
2018-02-20T09:21:43.000Z,25
2018-02-20T09:22:43.000Z,25
2018-02-20T09:23:43.000Z,25
2018-02-20T09:24:43.000Z,25
2018-02-20T09:25:43.000Z,26
2018-02-20T09:26:43.000Z,26
2018-02-20T09:27:43.000Z,26
2018-02-20T09:28:43.000Z,26
2018-02-20T09:29:43.000Z,26
2018-02-20T09:30:43.000Z,26
2018-02-20T09:31:43.000Z,26
2018-02-20T09:32:43.000Z,26
2018-02-20T09:33:43.000Z,26
2018-02-20T09:34:43.000Z,26
2018-02-20T09:35:43.000Z,26
2018-02-20T09:36:43.000Z,26
2018-02-20T09:37:43.000Z,26
2018-02-20T09:39:43.000Z,27
2018-02-20T09:40:43.000Z,27
2018-02-20T09:42:43.000Z,27
2018-02-20T09:43:43.000Z,27
2018-02-20T09:44:43.000Z,27
2018-02-20T09:45:43.000Z,27
2018-02-20T09:46:43.000Z,28
2018-02-20T09:47:43.000Z,28
2018-02-20T09:48:43.000Z,28
2018-02-20T09:49:43.000Z,28
2018-02-20T09:50:43.000Z,27
2018-02-20T09:51:43.000Z,27
2018-02-20T09:52:43.000Z,27
2018-02-20T09:53:43.000Z,27
2018-02-20T09:54:43.000Z,27
2018-02-20T09:56:43.000Z,28
2018-02-20T09:57:43.000Z,28
2018-02-20T09:58:43.000Z,28
2018-02-20T09:59:43.000Z,28
2018-02-20T10:00:43.000Z,28
2018-02-20T10:01:43.000Z,28
2018-02-20T10:02:43.000Z,28
2018-02-20T10:03:43.000Z,28
2018-02-20T10:04:43.000Z,28
2018-02-20T10:05:43.000Z,28
2018-02-20T10:06:43.000Z,28
2018-02-20T10:07:43.000Z,28
2018-02-20T10:10:26.000Z,28
2018-02-20T10:11:26.000Z,28
2018-02-20T10:12:26.000Z,28
2018-02-20T10:13:26.000Z,28
2018-02-20T10:15:26.000Z,28
2018-02-20T10:16:26.000Z,28
2018-02-20T10:17:26.000Z,29
2018-02-20T10:18:26.000Z,29
2018-02-20T10:19:26.000Z,29
2018-02-20T10:20:26.000Z,29
2018-02-20T10:21:26.000Z,29
2018-02-20T10:22:26.000Z,29
2018-02-20T10:23:26.000Z,29
2018-02-20T10:24:26.000Z,29
2018-02-20T10:25:26.000Z,29
2018-02-20T10:26:26.000Z,28
2018-02-20T10:27:26.000Z,28
2018-02-20T10:28:26.000Z,28
2018-02-20T10:29:26.000Z,28
2018-02-20T10:30:26.000Z,28
2018-02-20T10:31:26.000Z,27
2018-02-20T10:32:26.000Z,27
2018-02-20T10:33:26.000Z,27
2018-02-20T10:34:26.000Z,27
2018-02-20T10:35:26.000Z,27
2018-02-20T10:36:26.000Z,27
2018-02-20T10:37:26.000Z,27
2018-02-20T10:38:26.000Z,26
2018-02-20T10:39:26.000Z,26
2018-02-20T10:40:26.000Z,26
2018-02-20T10:41:26.000Z,26
2018-02-20T10:43:26.000Z,26
2018-02-20T10:44:26.000Z,26
2018-02-20T10:45:26.000Z,26
2018-02-20T10:46:26.000Z,26
2018-02-20T10:47:26.000Z,26
2018-02-20T10:48:26.000Z,26
2018-02-20T10:49:26.000Z,26
2018-02-20T10:50:26.000Z,25
2018-02-20T10:51:26.000Z,26
2018-02-20T10:52:26.000Z,25
2018-02-20T10:54:26.000Z,25
2018-02-20T10:55:26.000Z,25
2018-02-20T10:56:26.000Z,25
2018-02-20T10:57:26.000Z,25
2018-02-20T10:58:26.000Z,25
2018-02-20T11:00:26.000Z,25
2018-02-20T11:01:26.000Z,25
2018-02-20T11:03:26.000Z,25
2018-02-20T11:04:26.000Z,25
2018-02-20T11:05:26.000Z,25
2018-02-20T11:06:26.000Z,25
2018-02-20T11:07:26.000Z,25
2018-02-20T11:09:26.000Z,25
2018-02-20T11:11:26.000Z,25
2018-02-20T11:12:26.000Z,25
2018-02-20T11:13:26.000Z,25
2018-02-20T11:14:26.000Z,25
2018-02-20T11:15:26.000Z,25
2018-02-20T11:16:26.000Z,25
2018-02-20T11:17:26.000Z,25
2018-02-20T11:18:26.000Z,25
2018-02-20T11:19:26.000Z,25
2018-02-20T11:20:26.000Z,25
2018-02-20T11:21:26.000Z,25
2018-02-20T11:22:26.000Z,25
2018-02-20T11:23:26.000Z,25
2018-02-20T11:24:26.000Z,25
2018-02-20T11:25:26.000Z,25
2018-02-20T11:27:26.000Z,24
2018-02-20T11:28:26.000Z,24
2018-02-20T11:29:26.000Z,24
2018-02-20T11:30:26.000Z,24
2018-02-20T11:31:26.000Z,25
2018-02-20T11:32:26.000Z,24
2018-02-20T11:33:26.000Z,24
2018-02-20T11:34:26.000Z,24
2018-02-20T11:35:26.000Z,24
2018-02-20T11:36:26.000Z,24
2018-02-20T11:38:26.000Z,24
2018-02-20T11:39:26.000Z,24
2018-02-20T11:40:26.000Z,24
2018-02-20T11:41:26.000Z,24
2018-02-20T11:42:26.000Z,24
2018-02-20T11:43:26.000Z,24
2018-02-20T11:44:26.000Z,24
2018-02-20T11:45:26.000Z,24
2018-02-20T11:46:26.000Z,24
2018-02-20T11:47:26.000Z,24
2018-02-20T11:48:27.000Z,23
2018-02-20T11:50:27.000Z,23
2018-02-20T11:51:27.000Z,23
2018-02-20T11:52:27.000Z,23
2018-02-20T11:53:27.000Z,23
2018-02-20T11:54:27.000Z,23
2018-02-20T11:55:27.000Z,23
2018-02-20T11:56:27.000Z,23
2018-02-20T11:57:27.000Z,24
2018-02-20T11:58:27.000Z,23
2018-02-20T12:00:27.000Z,23
2018-02-20T12:02:27.000Z,23
2018-02-20T12:04:27.000Z,23
2018-02-20T12:05:27.000Z,23
2018-02-20T12:06:27.000Z,23
2018-02-20T12:07:27.000Z,23
2018-02-20T12:08:27.000Z,23
2018-02-20T12:09:27.000Z,23
2018-02-20T12:10:27.000Z,23
2018-02-20T12:11:27.000Z,23
2018-02-20T12:13:27.000Z,23
2018-02-20T12:15:27.000Z,23
2018-02-20T12:16:27.000Z,23
2018-02-20T12:17:27.000Z,23
2018-02-20T12:18:27.000Z,23
2018-02-20T12:19:27.000Z,23
2018-02-20T12:20:27.000Z,23
2018-02-20T12:21:27.000Z,23
2018-02-20T12:22:27.000Z,23
2018-02-20T12:23:27.000Z,23
2018-02-20T12:24:27.000Z,23
2018-02-20T12:25:27.000Z,23
2018-02-20T12:26:27.000Z,23
2018-02-20T12:27:27.000Z,22
2018-02-20T12:28:27.000Z,22
2018-02-20T12:29:27.000Z,22
2018-02-20T12:30:27.000Z,23
2018-02-20T12:31:27.000Z,23
2018-02-20T12:33:27.000Z,23
2018-02-20T12:34:27.000Z,23
2018-02-20T12:35:27.000Z,23
2018-02-20T12:36:27.000Z,24
2018-02-20T12:37:27.000Z,24
2018-02-20T12:38:27.000Z,24
2018-02-20T12:39:27.000Z,24
2018-02-20T12:40:27.000Z,24
2018-02-20T12:41:27.000Z,24
2018-02-20T12:42:27.000Z,23
2018-02-20T12:43:27.000Z,23
2018-02-20T12:44:27.000Z,23
2018-02-20T12:45:27.000Z,23
2018-02-20T12:47:27.000Z,23
2018-02-20T12:48:27.000Z,23
2018-02-20T12:49:27.000Z,24
2018-02-20T12:50:27.000Z,24
2018-02-20T12:51:27.000Z,24
2018-02-20T12:53:26.000Z,24
2018-02-20T12:54:26.000Z,24
2018-02-20T12:55:26.000Z,24
2018-02-20T12:56:26.000Z,24
2018-02-20T12:57:26.000Z,24
2018-02-20T12:59:26.000Z,24
2018-02-20T13:00:26.000Z,24
2018-02-20T13:02:26.000Z,24
2018-02-20T13:03:26.000Z,24
2018-02-20T13:04:26.000Z,24
2018-02-20T13:05:26.000Z,24
2018-02-20T13:06:26.000Z,24
2018-02-20T13:08:26.000Z,24
2018-02-20T13:09:26.000Z,24
2018-02-20T13:11:26.000Z,24
2018-02-20T13:12:26.000Z,24
2018-02-20T13:13:26.000Z,24
2018-02-20T13:14:26.000Z,24
2018-02-20T13:15:26.000Z,24
2018-02-20T13:16:26.000Z,24
2018-02-20T13:17:26.000Z,24
2018-02-20T13:19:26.000Z,24
2018-02-20T13:20:26.000Z,24
2018-02-20T13:21:26.000Z,24
2018-02-20T13:22:26.000Z,24
2018-02-20T13:23:26.000Z,23
2018-02-20T13:24:26.000Z,24
2018-02-20T13:25:26.000Z,23
2018-02-20T13:26:26.000Z,24
2018-02-20T13:28:26.000Z,23
2018-02-20T13:29:26.000Z,24
2018-02-20T13:30:26.000Z,23
2018-02-20T13:31:26.000Z,24
2018-02-20T13:32:26.000Z,24
2018-02-20T13:33:26.000Z,24
2018-02-20T13:34:26.000Z,24
2018-02-20T13:35:26.000Z,24
2018-02-20T13:36:26.000Z,23
2018-02-20T13:37:26.000Z,23
2018-02-20T13:38:26.000Z,23
2018-02-20T13:39:26.000Z,24
2018-02-20T13:41:26.000Z,23
2018-02-20T13:42:26.000Z,24
2018-02-20T13:43:26.000Z,24
2018-02-20T13:44:26.000Z,24
2018-02-20T13:45:26.000Z,23
2018-02-20T13:47:26.000Z,23
2018-02-20T13:48:26.000Z,23
2018-02-20T13:50:26.000Z,23
2018-02-20T13:51:26.000Z,24
2018-02-20T13:52:26.000Z,24
2018-02-20T13:53:26.000Z,24
2018-02-20T13:54:26.000Z,24
2018-02-20T13:56:26.000Z,23
2018-02-20T13:57:26.000Z,24
2018-02-20T13:58:26.000Z,23
2018-02-20T13:59:26.000Z,23
2018-02-20T14:01:26.000Z,23
2018-02-20T14:02:26.000Z,24
2018-02-20T14:03:26.000Z,24
2018-02-20T14:04:26.000Z,24
2018-02-20T14:05:26.000Z,24
2018-02-20T14:06:26.000Z,24
2018-02-20T14:07:26.000Z,24
2018-02-20T14:08:26.000Z,24
2018-02-20T14:09:26.000Z,24
2018-02-20T14:10:26.000Z,24
2018-02-20T14:11:26.000Z,24
2018-02-20T14:12:26.000Z,24
2018-02-20T14:13:26.000Z,24
2018-02-20T14:15:26.000Z,24
2018-02-20T14:16:26.000Z,24
2018-02-20T14:17:26.000Z,24
2018-02-20T14:18:26.000Z,24
2018-02-20T14:19:26.000Z,24
2018-02-20T14:20:26.000Z,24
2018-02-20T14:21:26.000Z,24
2018-02-20T14:22:26.000Z,24
2018-02-20T14:23:26.000Z,24
2018-02-20T14:24:26.000Z,24
2018-02-20T14:25:26.000Z,24
2018-02-20T14:27:26.000Z,24
2018-02-20T14:28:26.000Z,24
2018-02-20T14:29:26.000Z,24
2018-02-20T14:30:26.000Z,23
2018-02-20T14:32:26.000Z,23
2018-02-20T14:33:26.000Z,23
2018-02-20T14:34:26.000Z,22
2018-02-20T14:35:26.000Z,22
2018-02-20T14:36:26.000Z,22
2018-02-20T14:37:26.000Z,22
2018-02-20T14:38:26.000Z,22
2018-02-20T14:40:26.000Z,22
2018-02-20T14:41:26.000Z,22
2018-02-20T14:43:26.000Z,22
2018-02-20T14:44:26.000Z,22
2018-02-20T14:45:26.000Z,22
2018-02-20T14:46:26.000Z,23
2018-02-20T14:47:26.000Z,23
2018-02-20T14:48:26.000Z,23
2018-02-20T14:49:26.000Z,23
2018-02-20T14:50:26.000Z,23
2018-02-20T14:51:26.000Z,23
2018-02-20T14:52:26.000Z,23
2018-02-20T14:53:26.000Z,23
2018-02-20T14:54:26.000Z,23
2018-02-20T14:55:26.000Z,23
2018-02-20T14:56:26.000Z,23
2018-02-20T14:57:26.000Z,23
2018-02-20T14:58:26.000Z,23
2018-02-20T14:59:26.000Z,23
2018-02-20T15:01:26.000Z,23
2018-02-20T15:03:26.000Z,23
2018-02-20T15:04:26.000Z,23
2018-02-20T15:05:26.000Z,23
2018-02-20T15:06:26.000Z,23
2018-02-20T15:07:26.000Z,23
2018-02-20T15:08:26.000Z,23
2018-02-20T15:09:26.000Z,23
2018-02-20T15:10:26.000Z,23
2018-02-20T15:11:26.000Z,23
2018-02-20T15:12:26.000Z,23
2018-02-20T15:13:26.000Z,24
2018-02-20T15:14:26.000Z,24
2018-02-20T15:15:26.000Z,24
2018-02-20T15:16:26.000Z,24
2018-02-20T15:17:26.000Z,24
2018-02-20T15:18:26.000Z,23
2018-02-20T15:19:26.000Z,24
2018-02-20T15:20:26.000Z,23
2018-02-20T15:21:26.000Z,24
2018-02-20T15:22:26.000Z,24
2018-02-20T15:23:26.000Z,24
2018-02-20T15:25:26.000Z,24
2018-02-20T15:26:26.000Z,24
2018-02-20T15:27:26.000Z,24
2018-02-20T15:28:26.000Z,24
2018-02-20T15:29:26.000Z,24
2018-02-20T15:30:26.000Z,24
2018-02-20T15:31:26.000Z,24
2018-02-20T15:32:26.000Z,24
2018-02-20T15:33:26.000Z,24
2018-02-20T15:34:26.000Z,24
2018-02-20T15:35:26.000Z,24
2018-02-20T15:36:26.000Z,24
2018-02-20T15:38:26.000Z,24
2018-02-20T15:39:26.000Z,24
2018-02-20T15:40:26.000Z,24
2018-02-20T15:41:26.000Z,24
2018-02-20T15:42:26.000Z,24
2018-02-20T15:43:26.000Z,24
2018-02-20T15:44:26.000Z,24
2018-02-20T15:45:26.000Z,24
2018-02-20T15:46:26.000Z,24
2018-02-20T15:48:26.000Z,24
2018-02-20T15:49:26.000Z,24
2018-02-20T15:50:26.000Z,24
2018-02-20T15:52:26.000Z,24
2018-02-20T15:53:26.000Z,24
2018-02-20T15:54:26.000Z,24
2018-02-20T15:55:26.000Z,24
2018-02-20T15:56:26.000Z,24
2018-02-20T15:57:26.000Z,24
2018-02-20T15:58:26.000Z,24
2018-02-20T15:59:26.000Z,24
2018-02-20T16:00:26.000Z,24